createdAt,value
2022-08-31T00:00:09.393Z,18.84
2022-08-31T00:02:54.512Z,18.87
2022-08-31T00:05:22.807Z,18.89
2022-08-31T00:07:50.610Z,18.86
2022-08-31T00:10:32.546Z,18.82
2022-08-31T00:13:04.814Z,18.72
2022-08-31T00:15:34.914Z,18.64
2022-08-31T00:18:02.737Z,18.74
2022-08-31T00:20:33.163Z,18.62
2022-08-31T00:23:02.559Z,18.68
2022-08-31T00:25:31.972Z,18.49
2022-08-31T00:27:59.823Z,18.54
2022-08-31T00:30:27.966Z,18.40
2022-08-31T00:32:57.105Z,18.51
2022-08-31T00:35:26.787Z,18.38
2022-08-31T00:37:54.683Z,18.44
2022-08-31T00:40:22.955Z,18.46
2022-08-31T00:42:52.354Z,18.42
2022-08-31T00:45:20.647Z,18.41
2022-08-31T00:47:48.695Z,18.40
2022-08-31T00:50:17.329Z,18.31
2022-08-31T00:52:47.227Z,18.33
2022-08-31T00:55:15.954Z,18.32
2022-08-31T00:57:44.707Z,18.29
2022-08-31T01:00:25.579Z,18.30
2022-08-31T01:02:53.507Z,18.21
2022-08-31T01:05:21.881Z,18.16
2022-08-31T01:07:49.760Z,18.29
2022-08-31T01:10:18.025Z,18.23
2022-08-31T01:12:46.230Z,18.23
2022-08-31T01:15:15.504Z,18.25
2022-08-31T01:17:44.074Z,18.22
2022-08-31T01:20:15.311Z,18.23
2022-08-31T01:22:46.128Z,18.26
2022-08-31T01:25:15.281Z,18.23
2022-08-31T01:27:43.464Z,18.27
2022-08-31T01:30:13.048Z,18.32
2022-08-31T01:32:41.193Z,18.35
2022-08-31T01:35:11.281Z,18.38
2022-08-31T01:37:39.531Z,18.41
2022-08-31T01:40:08.571Z,18.31
2022-08-31T01:42:38.153Z,18.51
2022-08-31T01:45:06.773Z,18.43
2022-08-31T01:47:34.599Z,18.59
2022-08-31T01:50:02.573Z,18.33
2022-08-31T01:52:30.781Z,18.23
2022-08-31T01:54:58.590Z,18.21
2022-08-31T01:57:34.233Z,18.23
2022-08-31T02:00:04.911Z,18.40
2022-08-31T02:02:33.097Z,18.25
2022-08-31T02:05:01.016Z,18.28
2022-08-31T02:07:28.868Z,18.22
2022-08-31T02:09:56.967Z,18.06
2022-08-31T02:12:24.824Z,17.97
2022-08-31T02:14:52.837Z,17.99
2022-08-31T02:17:22.150Z,17.90
2022-08-31T02:19:50.041Z,17.86
2022-08-31T02:22:26.858Z,17.99
2022-08-31T02:24:54.722Z,17.94
2022-08-31T02:27:22.845Z,17.78
2022-08-31T02:29:50.663Z,17.84
2022-08-31T02:32:20.198Z,17.80
2022-08-31T02:34:49.840Z,17.80
2022-08-31T02:37:17.689Z,17.72
2022-08-31T02:39:48.669Z,17.57
2022-08-31T02:42:18.467Z,17.67
2022-08-31T02:44:46.391Z,17.58
2022-08-31T02:47:14.161Z,17.57
2022-08-31T02:49:42.023Z,17.52
2022-08-31T02:52:11.306Z,17.42
2022-08-31T02:54:39.173Z,17.44
2022-08-31T02:57:07.429Z,17.43
2022-08-31T02:59:35.211Z,17.41
2022-08-31T03:02:03.185Z,17.34
2022-08-31T03:04:31.407Z,17.28
2022-08-31T03:06:59.271Z,17.15
2022-08-31T03:09:28.545Z,17.07
2022-08-31T03:11:56.311Z,17.21
2022-08-31T03:14:24.204Z,17.15
2022-08-31T03:16:52.101Z,17.15
2022-08-31T03:19:20.754Z,17.17
2022-08-31T03:21:48.673Z,17.06
2022-08-31T03:24:27.099Z,17.03
2022-08-31T03:26:57.092Z,17.09
2022-08-31T03:29:24.922Z,17.02
2022-08-31T03:31:52.781Z,17.15
2022-08-31T03:34:20.911Z,17.12
2022-08-31T03:36:48.751Z,16.95
2022-08-31T03:39:16.564Z,17.01
2022-08-31T03:41:44.847Z,16.93
2022-08-31T03:44:14.064Z,17.02
2022-08-31T03:46:45.441Z,16.84
2022-08-31T03:49:13.957Z,16.84
2022-08-31T03:51:41.808Z,16.90
2022-08-31T03:54:10.863Z,16.76
2022-08-31T03:56:39.157Z,16.78
2022-08-31T03:59:07.850Z,16.66
2022-08-31T04:01:37.732Z,16.83
2022-08-31T04:04:07.474Z,16.81
2022-08-31T04:06:35.628Z,16.80
2022-08-31T04:09:03.447Z,16.97
2022-08-31T04:11:45.152Z,16.86
2022-08-31T04:14:15.607Z,16.75
2022-08-31T04:16:45.018Z,16.83
2022-08-31T04:19:16.012Z,16.85
2022-08-31T04:21:45.086Z,16.77
2022-08-31T04:24:12.931Z,16.71
2022-08-31T04:26:41.670Z,16.76
2022-08-31T04:29:13.432Z,16.81
2022-08-31T04:31:41.582Z,16.58
2022-08-31T04:34:10.861Z,16.67
2022-08-31T04:36:38.759Z,16.68
2022-08-31T04:39:06.882Z,16.74
2022-08-31T04:41:36.072Z,16.53
2022-08-31T04:44:04.933Z,16.70
2022-08-31T04:46:33.561Z,16.67
2022-08-31T04:49:01.358Z,16.60
2022-08-31T04:51:31.711Z,16.63
2022-08-31T04:53:59.611Z,16.58
2022-08-31T04:56:28.329Z,16.56
2022-08-31T04:58:58.010Z,16.55
2022-08-31T05:01:36.229Z,16.58
2022-08-31T05:04:10.622Z,16.55
2022-08-31T05:06:40.963Z,16.59
2022-08-31T05:09:10.219Z,16.31
2022-08-31T05:11:38.091Z,16.51
2022-08-31T05:14:06.689Z,16.45
2022-08-31T05:16:35.079Z,16.40
2022-08-31T05:19:03.014Z,16.52
2022-08-31T05:21:32.141Z,16.44
2022-08-31T05:24:02.428Z,16.46
2022-08-31T05:26:31.170Z,16.41
2022-08-31T05:28:59.277Z,16.42
2022-08-31T05:31:30.144Z,16.44
2022-08-31T05:33:58.156Z,16.44
2022-08-31T05:36:26.227Z,16.43
2022-08-31T05:38:57.687Z,16.38
2022-08-31T05:41:30.757Z,16.39
2022-08-31T05:43:58.851Z,16.26
2022-08-31T05:46:28.336Z,16.30
2022-08-31T05:48:56.702Z,16.27
2022-08-31T05:51:24.731Z,16.06
2022-08-31T05:53:52.756Z,16.20
2022-08-31T05:56:22.030Z,16.19
2022-08-31T05:58:51.980Z,16.31
2022-08-31T06:01:21.296Z,16.21
2022-08-31T06:03:49.907Z,16.22
2022-08-31T06:06:17.864Z,16.31
2022-08-31T06:08:45.935Z,16.28
2022-08-31T06:11:19.254Z,16.32
2022-08-31T06:13:47.479Z,16.28
2022-08-31T06:16:17.742Z,16.38
2022-08-31T06:18:50.941Z,16.26
2022-08-31T06:21:21.090Z,16.30
2022-08-31T06:23:49.675Z,16.36
2022-08-31T06:26:18.323Z,16.42
2022-08-31T06:28:47.460Z,16.35
2022-08-31T06:31:18.536Z,16.46
2022-08-31T06:33:47.494Z,16.64
2022-08-31T06:36:16.775Z,16.79
2022-08-31T06:38:51.247Z,16.62
2022-08-31T06:41:24.855Z,16.82
2022-08-31T06:43:53.222Z,16.92
2022-08-31T06:46:23.052Z,17.03
2022-08-31T06:48:51.730Z,17.05
2022-08-31T06:51:19.580Z,17.15
2022-08-31T06:53:47.505Z,17.19
2022-08-31T06:56:20.909Z,17.27
2022-08-31T06:58:49.412Z,17.35
2022-08-31T07:01:34.846Z,17.38
2022-08-31T07:04:06.196Z,17.61
2022-08-31T07:06:36.321Z,17.70
2022-08-31T07:09:06.422Z,17.81
2022-08-31T07:11:35.816Z,17.98
2022-08-31T07:14:03.969Z,18.00
2022-08-31T07:16:33.345Z,18.24
2022-08-31T07:19:04.085Z,18.39
2022-08-31T07:21:32.854Z,18.38
2022-08-31T07:24:02.014Z,18.53
2022-08-31T07:26:35.760Z,18.67
2022-08-31T07:29:06.768Z,18.78
2022-08-31T07:31:40.391Z,18.86
2022-08-31T07:34:11.024Z,18.98
2022-08-31T07:36:59.158Z,19.15
2022-08-31T07:39:45.010Z,19.32
2022-08-31T07:42:13.250Z,19.54
2022-08-31T07:44:42.499Z,19.67
2022-08-31T07:47:30.629Z,19.92
2022-08-31T07:50:17.075Z,20.11
2022-08-31T07:52:51.801Z,20.14
2022-08-31T07:55:20.242Z,20.21
2022-08-31T07:57:52.343Z,20.26
2022-08-31T08:00:21.514Z,20.39
2022-08-31T08:02:53.059Z,20.61
2022-08-31T08:05:23.561Z,20.57
2022-08-31T08:07:56.859Z,20.48
2022-08-31T08:10:26.327Z,20.52
2022-08-31T08:13:00.783Z,20.69
2022-08-31T08:15:33.623Z,20.71
2022-08-31T08:18:05.513Z,20.79
2022-08-31T08:20:37.678Z,20.77
2022-08-31T08:23:11.579Z,20.80
2022-08-31T08:25:43.339Z,20.79
2022-08-31T08:28:37.981Z,20.73
2022-08-31T08:31:09.498Z,20.61
2022-08-31T08:33:44.625Z,20.83
2022-08-31T08:36:18.357Z,21.04
2022-08-31T08:38:47.458Z,20.92
2022-08-31T08:41:16.805Z,21.00
2022-08-31T08:43:49.998Z,21.15
2022-08-31T08:46:34.783Z,21.19
2022-08-31T08:49:16.526Z,21.39
2022-08-31T08:51:46.831Z,21.41
2022-08-31T08:54:26.325Z,21.34
2022-08-31T08:56:54.079Z,21.67
2022-08-31T08:59:21.922Z,21.53
2022-08-31T09:01:51.129Z,21.77
2022-08-31T09:04:41.498Z,21.89
2022-08-31T09:07:21.006Z,21.85
2022-08-31T09:09:50.364Z,22.02
2022-08-31T09:12:25.878Z,22.17
2022-08-31T09:15:08.074Z,22.13
2022-08-31T09:17:40.085Z,22.18
2022-08-31T09:20:12.845Z,22.28
2022-08-31T09:22:47.282Z,22.43
2022-08-31T09:25:17.197Z,22.45
2022-08-31T09:27:48.100Z,22.39
2022-08-31T09:30:18.722Z,22.58
2022-08-31T09:32:57.763Z,22.70
2022-08-31T09:35:30.853Z,22.62
2022-08-31T09:38:00.072Z,22.64
2022-08-31T09:40:36.380Z,22.72
2022-08-31T09:43:06.578Z,22.73
2022-08-31T09:45:41.234Z,22.75
2022-08-31T09:48:10.253Z,23.08
2022-08-31T09:50:45.217Z,23.09
2022-08-31T09:53:33.690Z,23.30
2022-08-31T09:56:14.392Z,23.15
2022-08-31T09:58:50.413Z,23.32
2022-08-31T10:01:23.944Z,23.37
2022-08-31T10:03:52.926Z,23.61
2022-08-31T10:06:30.317Z,23.50
2022-08-31T10:08:59.690Z,23.56
2022-08-31T10:11:31.048Z,23.52
2022-08-31T10:14:04.966Z,23.29
2022-08-31T10:16:34.684Z,23.66
2022-08-31T10:19:04.703Z,23.77
2022-08-31T10:21:40.693Z,23.78
2022-08-31T10:24:21.020Z,23.90
2022-08-31T10:26:51.680Z,23.70
2022-08-31T10:29:27.126Z,23.73
2022-08-31T10:31:56.171Z,23.98
2022-08-31T10:34:42.847Z,23.89
2022-08-31T10:37:13.592Z,23.99
2022-08-31T10:39:44.948Z,23.95
2022-08-31T10:42:15.649Z,23.67
2022-08-31T10:44:52.357Z,23.94
2022-08-31T10:47:32.527Z,23.98
2022-08-31T10:50:03.184Z,23.99
2022-08-31T10:52:34.378Z,23.97
2022-08-31T10:55:07.512Z,24.13
2022-08-31T10:57:39.879Z,24.08
2022-08-31T11:00:09.695Z,24.06
2022-08-31T11:02:43.616Z,24.05
2022-08-31T11:05:27.024Z,24.05
2022-08-31T11:07:59.533Z,24.13
2022-08-31T11:10:29.560Z,23.92
2022-08-31T11:13:01.025Z,23.89
2022-08-31T11:15:59.074Z,23.90
2022-08-31T11:19:11.078Z,24.18
2022-08-31T11:22:09.885Z,23.92
2022-08-31T11:25:01.739Z,23.94
2022-08-31T11:27:33.521Z,23.75
2022-08-31T11:30:08.215Z,23.67
2022-08-31T11:32:37.944Z,23.43
2022-08-31T11:35:13.795Z,23.28
2022-08-31T11:37:56.152Z,23.73
2022-08-31T11:41:00.636Z,23.66
2022-08-31T11:43:49.032Z,23.90
2022-08-31T11:47:02.256Z,23.93
2022-08-31T11:49:42.324Z,23.82
2022-08-31T11:52:14.737Z,23.78
2022-08-31T11:55:11.398Z,23.87
2022-08-31T11:58:11.483Z,24.07
2022-08-31T12:00:51.940Z,24.01
2022-08-31T12:03:44.282Z,24.17
2022-08-31T12:06:13.284Z,24.17
2022-08-31T12:08:54.704Z,24.20
2022-08-31T12:11:31.445Z,24.35
2022-08-31T12:14:02.796Z,23.96
2022-08-31T12:16:47.048Z,24.35
2022-08-31T12:19:52.558Z,24.28
2022-08-31T12:23:09.535Z,24.59
2022-08-31T12:25:42.995Z,24.61
2022-08-31T12:28:14.324Z,24.73
2022-08-31T12:30:50.564Z,24.68
2022-08-31T12:33:19.641Z,24.97
2022-08-31T12:35:49.672Z,24.76
2022-08-31T12:38:21.431Z,24.40
2022-08-31T12:40:53.567Z,24.91
2022-08-31T12:43:22.777Z,24.79
2022-08-31T12:46:23.227Z,24.63
2022-08-31T12:49:26.114Z,24.72
2022-08-31T12:51:58.594Z,24.48
2022-08-31T12:55:09.075Z,25.09
2022-08-31T12:57:58.948Z,24.71
2022-08-31T13:00:27.822Z,24.71
2022-08-31T13:02:59.230Z,24.90
2022-08-31T13:05:29.174Z,24.93
2022-08-31T13:07:57.010Z,25.01
2022-08-31T13:10:33.666Z,24.87
2022-08-31T13:13:02.874Z,24.64
2022-08-31T13:15:37.294Z,24.62
2022-08-31T13:18:12.009Z,24.42
2022-08-31T13:20:43.372Z,24.47
2022-08-31T13:23:13.237Z,24.33
2022-08-31T13:25:41.219Z,24.34
2022-08-31T13:28:26.246Z,24.38
2022-08-31T13:31:02.808Z,24.06
2022-08-31T13:33:34.967Z,23.93
2022-08-31T13:36:05.426Z,24.13
2022-08-31T13:38:43.347Z,24.28
2022-08-31T13:41:18.279Z,24.35
2022-08-31T13:43:59.021Z,24.41
2022-08-31T13:46:42.025Z,24.56
2022-08-31T13:49:26.272Z,24.65
2022-08-31T13:51:54.139Z,25.02
2022-08-31T13:54:29.260Z,25.04
2022-08-31T13:56:58.889Z,24.75
2022-08-31T14:00:07.624Z,25.35
2022-08-31T14:02:39.587Z,25.46
2022-08-31T14:05:13.071Z,25.63
2022-08-31T14:08:10.262Z,25.16
2022-08-31T14:10:52.035Z,24.90
2022-08-31T14:13:21.656Z,24.89
2022-08-31T14:15:56.743Z,24.69
2022-08-31T14:18:27.909Z,24.68
2022-08-31T14:21:28.260Z,24.66
2022-08-31T14:24:01.555Z,24.48
2022-08-31T14:26:32.217Z,24.50
2022-08-31T14:29:01.428Z,24.49
2022-08-31T14:31:32.793Z,24.36
2022-08-31T14:34:24.194Z,24.46
2022-08-31T14:36:55.848Z,24.48
2022-08-31T14:39:26.596Z,24.29
2022-08-31T14:41:55.400Z,24.41
2022-08-31T14:44:25.747Z,24.67
2022-08-31T14:46:53.973Z,24.54
2022-08-31T14:49:22.087Z,24.72
2022-08-31T14:51:49.900Z,24.80
2022-08-31T14:54:21.456Z,24.78
2022-08-31T14:57:07.729Z,24.83
2022-08-31T14:59:36.147Z,24.93
2022-08-31T15:02:04.116Z,24.86
2022-08-31T15:04:33.716Z,24.79
2022-08-31T15:07:09.575Z,24.71
2022-08-31T15:09:43.105Z,25.18
2022-08-31T15:12:14.786Z,25.14
2022-08-31T15:14:44.913Z,24.96
2022-08-31T15:17:19.010Z,24.71
2022-08-31T15:19:50.326Z,24.43
2022-08-31T15:22:18.991Z,24.39
2022-08-31T15:24:49.984Z,24.65
2022-08-31T15:27:17.907Z,24.94
2022-08-31T15:29:46.726Z,24.82
2022-08-31T15:32:16.469Z,24.81
2022-08-31T15:34:46.011Z,24.71
2022-08-31T15:37:13.912Z,24.33
2022-08-31T15:39:43.433Z,24.39
2022-08-31T15:42:13.717Z,24.63
2022-08-31T15:44:42.724Z,24.61
2022-08-31T15:47:31.418Z,24.71
2022-08-31T15:49:59.464Z,24.80
2022-08-31T15:52:28.182Z,24.86
2022-08-31T15:54:57.249Z,24.86
2022-08-31T15:57:26.555Z,24.99
2022-08-31T15:59:54.434Z,24.72
2022-08-31T16:02:22.851Z,24.81
2022-08-31T16:04:51.397Z,24.75
2022-08-31T16:07:22.092Z,24.85
2022-08-31T16:09:49.990Z,24.97
2022-08-31T16:12:18.771Z,24.91
2022-08-31T16:14:51.233Z,24.47
2022-08-31T16:17:23.504Z,24.55
2022-08-31T16:19:56.507Z,24.70
2022-08-31T16:22:30.771Z,24.70
2022-08-31T16:25:00.195Z,24.41
2022-08-31T16:27:28.326Z,24.56
2022-08-31T16:29:58.325Z,24.37
2022-08-31T16:32:28.611Z,24.42
2022-08-31T16:35:00.359Z,24.45
2022-08-31T16:37:28.382Z,24.61
2022-08-31T16:39:56.193Z,24.32
2022-08-31T16:42:24.144Z,24.02
2022-08-31T16:44:52.114Z,24.17
2022-08-31T16:47:21.830Z,24.13
2022-08-31T16:49:48.767Z,23.87
2022-08-31T16:52:21.261Z,23.78
2022-08-31T16:54:53.564Z,23.60
2022-08-31T16:57:39.708Z,23.47
2022-08-31T17:00:10.362Z,23.46
2022-08-31T17:02:41.864Z,23.38
2022-08-31T17:05:09.845Z,23.35
2022-08-31T17:07:42.678Z,23.36
2022-08-31T17:10:11.178Z,23.33
2022-08-31T17:12:42.041Z,23.29
2022-08-31T17:15:12.201Z,23.32
2022-08-31T17:17:42.302Z,23.23
2022-08-31T17:20:13.165Z,23.24
2022-08-31T17:22:41.053Z,23.21
2022-08-31T17:25:09.662Z,23.07
2022-08-31T17:27:37.768Z,23.21
2022-08-31T17:30:07.372Z,22.89
2022-08-31T17:32:44.643Z,22.78
2022-08-31T17:35:17.509Z,22.76
2022-08-31T17:37:51.225Z,22.67
2022-08-31T17:40:19.514Z,22.63
2022-08-31T17:42:48.455Z,22.54
2022-08-31T17:45:17.539Z,22.50
2022-08-31T17:47:45.326Z,22.50
2022-08-31T17:50:17.724Z,22.52
2022-08-31T17:52:47.460Z,22.40
2022-08-31T17:55:15.317Z,22.34
2022-08-31T17:57:44.227Z,22.33
2022-08-31T18:00:14.670Z,22.16
2022-08-31T18:02:42.631Z,22.19
2022-08-31T18:05:12.165Z,22.13
2022-08-31T18:07:41.805Z,22.02
2022-08-31T18:10:10.879Z,21.97
2022-08-31T18:12:41.179Z,21.91
2022-08-31T18:15:10.517Z,21.86
2022-08-31T18:17:38.417Z,21.89
2022-08-31T18:20:06.948Z,21.65
2022-08-31T18:22:34.821Z,21.51
2022-08-31T18:25:04.693Z,21.43
2022-08-31T18:27:32.545Z,21.48
2022-08-31T18:30:01.128Z,21.41
2022-08-31T18:32:36.251Z,21.33
2022-08-31T18:35:05.913Z,21.16
2022-08-31T18:37:34.865Z,21.29
2022-08-31T18:40:22.261Z,21.09
2022-08-31T18:43:07.454Z,21.01
2022-08-31T18:45:39.467Z,21.02
2022-08-31T18:48:24.422Z,20.96
2022-08-31T18:50:53.798Z,20.85
2022-08-31T18:53:27.641Z,20.77
2022-08-31T18:55:59.822Z,20.69
2022-08-31T18:58:28.787Z,20.60
2022-08-31T19:00:57.555Z,20.58
2022-08-31T19:03:27.416Z,20.57
2022-08-31T19:05:56.088Z,20.46
2022-08-31T19:08:24.058Z,20.39
2022-08-31T19:10:51.889Z,20.41
2022-08-31T19:13:21.702Z,20.40
2022-08-31T19:15:49.804Z,20.26
2022-08-31T19:18:18.218Z,20.20
2022-08-31T19:20:46.148Z,20.23
2022-08-31T19:23:18.815Z,20.27
2022-08-31T19:25:48.669Z,20.07
2022-08-31T19:28:16.536Z,20.03
2022-08-31T19:30:48.720Z,20.02
2022-08-31T19:33:16.915Z,19.96
2022-08-31T19:35:45.379Z,19.92
2022-08-31T19:38:14.410Z,19.90
2022-08-31T19:40:42.404Z,19.72
2022-08-31T19:46:15.969Z,19.62
2022-08-31T19:48:44.666Z,19.50
2022-08-31T19:51:14.259Z,19.52
2022-08-31T19:53:44.543Z,19.57
2022-08-31T19:56:17.661Z,19.51
2022-08-31T19:58:47.025Z,19.42
2022-08-31T20:01:18.311Z,19.36
2022-08-31T20:03:48.084Z,19.52
2022-08-31T20:06:17.209Z,19.36
2022-08-31T20:08:45.031Z,19.34
2022-08-31T20:11:17.043Z,19.45
2022-08-31T20:13:48.917Z,19.37
2022-08-31T20:16:18.413Z,19.41
2022-08-31T20:18:48.629Z,19.38
2022-08-31T20:21:18.782Z,19.43
2022-08-31T20:23:47.854Z,19.38
2022-08-31T20:26:15.878Z,19.42
2022-08-31T20:28:43.694Z,19.27
2022-08-31T20:31:12.330Z,19.24
2022-08-31T20:33:43.228Z,19.25
2022-08-31T20:36:18.305Z,19.34
2022-08-31T20:38:46.610Z,19.20
2022-08-31T20:41:14.634Z,19.24
2022-08-31T20:43:44.658Z,19.13
2022-08-31T20:46:33.525Z,19.14
2022-08-31T20:49:20.663Z,19.19
2022-08-31T20:51:48.699Z,19.11
2022-08-31T20:54:17.431Z,19.02
2022-08-31T20:56:45.604Z,19.10
2022-08-31T20:59:13.456Z,19.04
2022-08-31T21:01:41.371Z,19.03
2022-08-31T21:04:10.920Z,19.08
2022-08-31T21:06:39.198Z,19.12
2022-08-31T21:09:08.181Z,19.02
2022-08-31T21:11:40.639Z,18.99
2022-08-31T21:14:08.541Z,19.01
2022-08-31T21:16:36.429Z,18.85
2022-08-31T21:19:04.661Z,18.84
2022-08-31T21:21:33.873Z,18.73
2022-08-31T21:24:01.741Z,18.79
2022-08-31T21:26:29.659Z,18.84
2022-08-31T21:28:58.007Z,18.83
2022-08-31T21:31:28.876Z,18.73
2022-08-31T21:33:58.711Z,18.56
2022-08-31T21:36:26.769Z,18.68
2022-08-31T21:38:57.535Z,18.46
2022-08-31T21:41:26.702Z,18.41
2022-08-31T21:43:54.914Z,18.47
2022-08-31T21:46:23.721Z,18.48
2022-08-31T21:48:52.332Z,18.40
2022-08-31T21:51:21.485Z,18.39
2022-08-31T21:53:50.377Z,18.29
2022-08-31T21:56:19.918Z,18.11
2022-08-31T21:58:48.033Z,18.20
2022-08-31T22:01:18.682Z,18.20
2022-08-31T22:03:46.754Z,18.08
2022-08-31T22:06:15.353Z,18.06
2022-08-31T22:08:45.812Z,18.13
2022-08-31T22:11:15.000Z,18.10
2022-08-31T22:13:44.230Z,18.13
2022-08-31T22:16:18.811Z,17.98
2022-08-31T22:19:06.077Z,18.06
2022-08-31T22:21:35.035Z,17.98
2022-08-31T22:24:04.737Z,17.96
2022-08-31T22:26:34.545Z,17.87
2022-08-31T22:29:04.869Z,17.83
2022-08-31T22:31:36.730Z,17.85
2022-08-31T22:34:04.617Z,17.84
2022-08-31T22:36:32.877Z,17.74
2022-08-31T22:39:03.229Z,17.80
2022-08-31T22:41:31.956Z,17.68
2022-08-31T22:44:00.245Z,17.72
2022-08-31T22:46:29.566Z,17.80
2022-08-31T22:48:57.464Z,17.54
2022-08-31T22:51:25.362Z,17.61
2022-08-31T22:53:53.174Z,17.72
2022-08-31T22:56:22.306Z,17.58
2022-08-31T22:58:51.056Z,17.63
2022-08-31T23:01:19.861Z,17.68
2022-08-31T23:03:51.326Z,17.75
2022-08-31T23:06:20.177Z,17.73
2022-08-31T23:08:48.592Z,17.68
2022-08-31T23:11:19.332Z,17.71
2022-08-31T23:13:55.399Z,17.70
2022-08-31T23:16:25.105Z,17.63
2022-08-31T23:18:55.493Z,17.68
2022-08-31T23:21:24.866Z,17.70
2022-08-31T23:23:53.083Z,17.74
2022-08-31T23:26:24.921Z,17.69
2022-08-31T23:28:53.056Z,17.72
2022-08-31T23:31:21.525Z,17.78
2022-08-31T23:33:53.209Z,17.67
2022-08-31T23:36:26.114Z,17.75
2022-08-31T23:38:55.200Z,17.63
2022-08-31T23:41:25.900Z,17.70
2022-08-31T23:43:54.265Z,17.66
2022-08-31T23:46:23.832Z,17.70
2022-08-31T23:48:52.080Z,17.59
2022-08-31T23:51:20.299Z,17.58
2022-08-31T23:53:55.204Z,17.61
2022-08-31T23:56:32.182Z,17.64
2022-08-31T23:59:00.828Z,17.65
